Terminal Aerodrome Forecast
Issued by NWS

Home | Current Version | Previous Version | Graphics & Text | Print | Product List | Glossary On
Versions: 1 2 3 4 5 6 7 8 9 10 11 12 13 14 15 16
365
FTUS43 KMPX 260545
TAFRWF
TAF
KRWF 260545Z 2606/2706 25005KT P6SM -SHRA VCTS SCT040CB BKN090
     FM261200 36004KT P6SM SCT050 OVC100
     FM262200 02005KT P6SM SKC=

USA.gov is the U.S. government's official web portal to all federal, state and local government web resources and services.